Time;durP1;ratioP1;P1;durP2;ratioP2;P2;SDS_P1;SDS_P2;PMS_P1;PMS_P2;Temp;Humidity;BMP_temperature;BMP_pressure;BME280_temperature;BME280_humidity;BME280_pressure;Samples;Min_cycle;Max_cycle;Signal;HPM_P1;HPM_P2
2022/05/05 00:01:58;;;;;;;3.87;2.67;;;23.50;42.30;;;;;;5000958;28;93250;-64
2022/05/05 00:04:26;;;;;;;3.63;2.93;;;23.50;42.30;;;;;;5014722;28;88477;-65
2022/05/05 00:06:54;;;;;;;3.63;2.40;;;23.50;42.30;;;;;;5020009;28;88512;-65
2022/05/05 00:09:22;;;;;;;6.00;2.50;;;23.50;42.40;;;;;;5010183;28;90537;-65
2022/05/05 00:14:39;;;;;;;2.67;2.37;;;23.50;42.40;;;;;;5009829;28;88541;-64
2022/05/05 00:17:08;;;;;;;2.17;1.93;;;23.50;42.40;;;;;;5014234;28;88405;-64
2022/05/05 00:19:38;;;;;;;3.50;1.90;;;23.50;42.40;;;;;;5019805;28;89453;-64
2022/05/05 00:22:06;;;;;;;3.73;2.80;;;23.50;42.40;;;;;;5014758;28;93537;-64
2022/05/05 00:24:35;;;;;;;2.93;2.07;;;23.50;43.10;;;;;;5007997;28;89993;-64
2022/05/05 00:27:03;;;;;;;3.47;2.43;;;23.50;42.50;;;;;;5006345;28;88466;-64
2022/05/05 00:29:31;;;;;;;3.43;2.30;;;23.50;42.50;;;;;;5000452;28;90665;-64
2022/05/05 00:32:01;;;;;;;4.40;2.37;;;23.50;42.50;;;;;;5000482;28;90099;-64
2022/05/05 00:34:29;;;;;;;3.70;2.30;;;23.50;42.50;;;;;;5006079;28;88737;-64
2022/05/05 00:36:57;;;;;;;6.10;2.60;;;23.50;42.50;;;;;;5018202;28;90221;-64
2022/05/05 00:39:25;;;;;;;3.90;2.40;;;23.50;42.50;;;;;;5000270;28;90778;-64
2022/05/05 00:41:53;;;;;;;3.73;2.30;;;23.50;43.20;;;;;;5001552;28;90251;-64
2022/05/05 00:44:21;;;;;;;4.10;2.40;;;23.50;42.50;;;;;;5008163;28;88839;-64
2022/05/05 00:46:49;;;;;;;3.17;2.10;;;23.50;42.50;;;;;;5005698;28;89079;-65
2022/05/05 00:49:19;;;;;;;3.00;2.10;;;23.50;42.50;;;;;;5000176;28;93537;-64
2022/05/05 00:51:47;;;;;;;2.90;2.10;;;23.40;42.40;;;;;;5000174;28;90243;-64
2022/05/05 00:54:15;;;;;;;2.23;2.03;;;23.40;42.40;;;;;;5007564;28;88436;-64
2022/05/05 00:56:45;;;;;;;2.43;2.23;;;23.40;42.50;;;;;;5015167;28;88453;-64
2022/05/05 00:59:13;;;;;;;2.60;1.87;;;23.40;42.50;;;;;;5011051;28;90705;-64
2022/05/05 01:01:41;;;;;;;3.03;2.00;;;23.40;42.50;;;;;;4999314;28;89770;-64
2022/05/05 01:04:10;;;;;;;2.20;2.00;;;23.40;42.50;;;;;;5006493;28;88301;-64
2022/05/05 01:06:39;;;;;;;2.03;1.83;;;23.40;42.50;;;;;;5020175;28;88481;-64
2022/05/05 01:09:07;;;;;;;2.47;2.07;;;23.40;42.50;;;;;;5002172;27;90556;-65
2022/05/05 01:11:35;;;;;;;2.60;1.97;;;23.40;42.50;;;;;;5008049;28;92566;-64
2022/05/05 01:14:03;;;;;;;3.47;2.00;;;23.40;42.60;;;;;;5015695;28;89881;-64
2022/05/05 01:16:32;;;;;;;2.23;1.67;;;23.40;42.60;;;;;;5019133;28;88679;-64
2022/05/05 01:19:00;;;;;;;1.73;1.63;;;23.30;42.50;;;;;;5018176;28;89512;-64
2022/05/05 01:21:30;;;;;;;2.07;1.87;;;23.30;42.50;;;;;;5019583;28;89908;-64
2022/05/05 01:23:58;;;;;;;4.37;2.13;;;23.30;42.60;;;;;;5020149;28;92362;-64
2022/05/05 01:29:12;;;;;;;3.60;1.93;;;23.30;42.50;;;;;;4999481;28;90666;-64
2022/05/05 01:31:40;;;;;;;2.73;1.67;;;23.30;42.50;;;;;;5000979;28;89189;-65
2022/05/05 01:34:08;;;;;;;2.67;2.20;;;23.30;42.50;;;;;;5010289;28;88290;-65
2022/05/05 01:36:37;;;;;;;2.10;1.90;;;23.30;42.50;;;;;;5015096;28;88598;-64
2022/05/05 01:39:06;;;;;;;2.00;1.67;;;23.30;42.60;;;;;;5012929;28;91009;-64
2022/05/05 01:41:36;;;;;;;4.10;1.60;;;23.30;42.60;;;;;;5007676;28;88876;-64
2022/05/05 01:44:04;;;;;;;2.80;1.77;;;23.30;42.60;;;;;;5016499;28;88955;-64
2022/05/05 01:46:32;;;;;;;3.60;1.93;;;23.30;42.60;;;;;;4999015;28;88386;-64
2022/05/05 01:49:00;;;;;;;4.30;2.20;;;23.30;42.60;;;;;;5014969;28;90671;-65
2022/05/05 01:51:28;;;;;;;2.83;1.90;;;23.30;42.60;;;;;;4997965;28;89494;-64
2022/05/05 01:53:57;;;;;;;2.97;2.00;;;23.30;42.60;;;;;;4999085;28;88887;-64
2022/05/05 01:56:25;;;;;;;3.70;1.97;;;23.30;42.60;;;;;;5000865;28;88623;-64
2022/05/05 01:58:53;;;;;;;3.93;2.43;;;23.30;42.60;;;;;;5001699;28;89802;-64
2022/05/05 02:01:21;;;;;;;3.77;2.07;;;23.30;42.60;;;;;;5002484;28;88495;-65
2022/05/05 02:03:50;;;;;;;4.03;1.80;;;23.20;42.50;;;;;;5002586;28;89142;-64
2022/05/05 02:06:18;;;;;;;2.47;1.57;;;23.20;42.50;;;;;;5002924;28;88568;-64
2022/05/05 02:08:46;;;;;;;2.33;1.73;;;23.20;42.50;;;;;;5002302;28;90789;-64
2022/05/05 02:11:15;;;;;;;2.43;1.70;;;23.30;42.60;;;;;;5002373;28;89656;-64
2022/05/05 02:13:43;;;;;;;1.73;1.50;;;23.20;42.50;;;;;;5018197;28;89614;-64
2022/05/05 02:16:12;;;;;;;3.57;1.60;;;23.20;42.50;;;;;;5021126;28;88943;-64
2022/05/05 02:18:40;;;;;;;3.70;1.90;;;23.20;42.50;;;;;;5019199;28;91843;-65
2022/05/05 02:21:08;;;;;;;3.33;2.03;;;23.20;42.50;;;;;;5020248;28;88867;-64
2022/05/05 02:23:36;;;;;;;2.83;2.00;;;23.20;42.50;;;;;;5011927;28;88450;-65
2022/05/05 02:26:05;;;;;;;4.07;2.07;;;23.20;42.50;;;;;;5021181;28;88462;-64
2022/05/05 02:28:35;;;;;;;1.93;1.53;;;23.20;42.50;;;;;;5015239;28;89590;-64
2022/05/05 02:31:03;;;;;;;5.00;2.10;;;23.10;42.50;;;;;;5015608;28;92972;-64
2022/05/05 02:33:32;;;;;;;2.20;1.80;;;23.10;42.50;;;;;;5010890;28;89821;-65
2022/05/05 02:38:47;;;;;;;3.93;1.43;;;23.10;42.50;;;;;;5017874;28;89841;-65
2022/05/05 02:41:15;;;;;;;4.13;2.13;;;23.10;42.50;;;;;;5013115;28;88887;-63
2022/05/05 02:43:44;;;;;;;2.17;1.80;;;23.10;42.50;;;;;;5003910;28;88357;-64
2022/05/05 02:46:12;;;;;;;1.97;1.60;;;23.10;42.50;;;;;;5002549;28;88738;-64
2022/05/05 02:48:40;;;;;;;3.37;1.63;;;23.10;42.50;;;;;;5019627;28;92892;-64
2022/05/05 02:51:09;;;;;;;3.47;1.97;;;23.20;42.50;;;;;;5021036;28;90120;-64
2022/05/05 02:56:22;;;;;;;5.73;2.00;;;23.10;42.40;;;;;;5012007;28;88459;-65
2022/05/05 02:58:53;;;;;;;2.53;2.03;;;23.10;42.80;;;;;;5019822;28;89566;-64
2022/05/05 03:01:21;;;;;;;6.07;2.10;;;23.10;42.40;;;;;;5016819;28;90027;-64
2022/05/05 03:03:49;;;;;;;1.87;1.70;;;23.10;42.50;;;;;;5019636;28;89527;-64
2022/05/05 03:06:17;;;;;;;4.60;2.13;;;23.10;42.40;;;;;;5021671;28;88533;-64
2022/05/05 03:08:45;;;;;;;5.47;2.40;;;23.10;42.50;;;;;;5021184;28;90896;-64
2022/05/05 03:11:13;;;;;;;7.67;1.80;;;23.10;42.50;;;;;;5007404;28;90425;-64
2022/05/05 03:13:41;;;;;;;2.77;1.77;;;23.10;42.40;;;;;;5015261;28;90880;-64
2022/05/05 03:16:11;;;;;;;2.40;1.83;;;23.10;42.50;;;;;;5001154;28;88555;-64
2022/05/05 03:18:40;;;;;;;1.40;1.30;;;23.10;42.50;;;;;;5021360;28;93861;-63
2022/05/05 03:21:09;;;;;;;3.30;1.83;;;23.10;42.50;;;;;;5021255;28;89235;-64
2022/05/05 03:23:37;;;;;;;1.70;1.53;;;23.10;42.50;;;;;;5001166;28;88635;-64
2022/05/05 03:26:05;;;;;;;2.50;1.53;;;23.00;42.40;;;;;;5009985;28;88635;-65
2022/05/05 03:28:33;;;;;;;1.67;1.40;;;23.00;42.40;;;;;;5001320;28;92811;-64
2022/05/05 03:31:01;;;;;;;4.93;1.63;;;23.00;42.40;;;;;;5009152;28;90072;-64
2022/05/05 03:33:32;;;;;;;2.43;1.93;;;23.00;42.40;;;;;;5000806;28;88567;-64
2022/05/05 03:36:00;;;;;;;2.53;2.10;;;23.00;42.40;;;;;;4998141;28;88916;-64
2022/05/05 03:38:28;;;;;;;3.40;2.10;;;23.00;42.40;;;;;;4999238;28;89300;-64
2022/05/05 03:40:56;;;;;;;3.63;2.33;;;23.00;42.40;;;;;;5000737;28;89002;-65
2022/05/05 03:43:24;;;;;;;3.00;2.70;;;23.00;42.40;;;;;;5012012;28;88849;-65
2022/05/05 03:45:52;;;;;;;6.53;3.17;;;23.00;42.40;;;;;;5019165;28;89080;-64
2022/05/05 03:48:20;;;;;;;6.73;4.00;;;23.00;42.50;;;;;;5000179;28;93922;-64
2022/05/05 03:50:50;;;;;;;8.90;4.53;;;23.00;42.40;;;;;;5011360;28;90110;-65
2022/05/05 03:53:18;;;;;;;9.27;5.23;;;23.00;42.40;;;;;;5010833;28;90074;-64
2022/05/05 03:55:46;;;;;;;10.30;5.93;;;23.00;42.40;;;;;;5008816;28;88451;-68
2022/05/05 03:58:15;;;;;;;12.00;6.00;;;23.00;42.40;;;;;;5020717;28;90737;-67
2022/05/05 04:00:45;;;;;;;10.43;5.93;;;23.00;42.40;;;;;;5017991;28;90293;-68
2022/05/05 04:03:31;;;;;;;12.60;6.70;;;23.00;42.40;;;;;;5019959;28;89845;-69
2022/05/05 04:06:03;;;;;;;16.17;7.10;;;23.00;42.40;;;;;;5021164;27;88826;-65
2022/05/05 04:08:32;;;;;;;15.37;8.87;;;23.00;42.40;;;;;;5004224;28;89494;-68
2022/05/05 04:11:00;;;;;;;13.30;8.67;;;23.00;42.40;;;;;;5019415;28;90171;-69
2022/05/05 04:13:29;;;;;;;17.50;9.47;;;23.00;42.50;;;;;;5007090;28;89126;-71
2022/05/05 04:15:59;;;;;;;15.40;8.80;;;23.00;42.50;;;;;;5002274;28;88349;-65
2022/05/05 04:18:27;;;;;;;16.03;9.00;;;23.00;42.50;;;;;;5001522;28;90635;-66
2022/05/05 04:21:03;;;;;;;16.07;9.90;;;22.90;42.60;;;;;;5002979;28;90195;-70
2022/05/05 04:23:32;;;;;;;17.73;8.30;;;22.90;42.70;;;;;;5001168;28;92283;-71
2022/05/05 04:26:08;;;;;;;17.23;9.23;;;23.00;42.80;;;;;;5007228;28;88464;-65
2022/05/05 04:28:36;;;;;;;15.53;8.77;;;23.00;42.80;;;;;;5000823;28;91005;-71
2022/05/05 04:31:13;;;;;;;21.20;10.13;;;23.00;42.90;;;;;;5001036;28;90548;-66
2022/05/05 04:33:44;;;;;;;20.07;9.60;;;23.00;43.00;;;;;;5001765;28;88384;-71
2022/05/05 04:36:14;;;;;;;17.47;9.17;;;23.00;43.00;;;;;;5001776;28;88700;-71
2022/05/05 04:38:45;;;;;;;16.00;8.67;;;23.00;43.00;;;;;;5001125;28;89975;-65
2022/05/05 04:41:13;;;;;;;16.97;8.63;;;23.00;43.00;;;;;;5001924;28;89708;-68
2022/05/05 04:43:41;;;;;;;17.37;9.27;;;23.00;43.10;;;;;;5000358;28;88244;-65
2022/05/05 04:46:09;;;;;;;14.67;8.93;;;23.00;43.10;;;;;;4999824;28;88515;-65
2022/05/05 04:48:37;;;;;;;18.07;8.67;;;23.00;43.10;;;;;;4999387;28;90588;-65
2022/05/05 04:51:05;;;;;;;17.23;8.10;;;23.00;43.20;;;;;;4999805;28;90425;-65
2022/05/05 04:53:35;;;;;;;15.40;8.50;;;23.00;43.90;;;;;;4999762;28;88495;-65
2022/05/05 04:56:03;;;;;;;10.93;7.50;;;23.00;43.20;;;;;;5000127;28;88575;-65
2022/05/05 04:58:33;;;;;;;17.97;8.80;;;23.00;43.30;;;;;;4999709;28;89907;-65
2022/05/05 05:01:01;;;;;;;16.00;9.43;;;23.00;43.30;;;;;;5006257;28;92105;-65
2022/05/05 05:03:39;;;;;;;18.70;9.40;;;23.00;43.30;;;;;;4999085;28;88547;-66
2022/05/05 05:06:09;;;;;;;16.77;8.13;;;23.00;43.30;;;;;;5015789;28;88673;-65
2022/05/05 05:08:38;;;;;;;19.20;8.77;;;23.00;43.30;;;;;;5019933;28;89739;-65
2022/05/05 05:11:07;;;;;;;19.97;8.47;;;23.00;43.30;;;;;;5010765;28;88835;-65
2022/05/05 05:13:36;;;;;;;12.50;7.70;;;23.00;43.30;;;;;;5012670;28;91215;-68
2022/05/05 05:16:05;;;;;;;13.67;8.63;;;23.00;43.30;;;;;;5016517;28;88947;-65
2022/05/05 05:18:50;;;;;;;18.00;8.23;;;22.80;43.90;;;;;;5016364;28;91375;-65
2022/05/05 05:21:18;;;;;;;16.70;8.33;;;23.00;43.40;;;;;;5014189;28;88898;-64
2022/05/05 05:23:47;;;;;;;13.73;7.77;;;23.00;43.40;;;;;;5009304;28;90684;-67
2022/05/05 05:26:15;;;;;;;15.23;8.60;;;23.00;43.40;;;;;;5012549;28;88556;-64
2022/05/05 05:28:43;;;;;;;15.47;9.00;;;23.00;43.40;;;;;;5017561;28;90715;-65
2022/05/05 05:31:11;;;;;;;13.37;7.83;;;23.00;43.50;;;;;;5008269;28;88994;-65
2022/05/05 05:33:39;;;;;;;17.07;8.30;;;23.00;43.50;;;;;;5017947;28;89845;-65
2022/05/05 05:36:07;;;;;;;14.23;7.43;;;23.00;43.50;;;;;;5015936;28;89682;-64
2022/05/05 05:38:35;;;;;;;11.23;7.00;;;23.00;43.50;;;;;;5016329;28;89268;-66
2022/05/05 05:41:05;;;;;;;12.57;7.57;;;23.00;43.50;;;;;;5018506;28;91336;-72
2022/05/05 05:43:33;;;;;;;15.43;7.77;;;23.00;43.50;;;;;;5019280;28;88165;-65
2022/05/05 05:46:02;;;;;;;16.37;8.13;;;23.00;43.50;;;;;;5019670;27;88670;-65
2022/05/05 05:48:30;;;;;;;17.20;7.80;;;23.00;43.70;;;;;;5019359;28;90661;-65
2022/05/05 05:50:58;;;;;;;14.70;6.93;;;23.00;43.80;;;;;;5017102;28;89517;-66
2022/05/05 05:53:26;;;;;;;13.83;8.33;;;23.00;43.90;;;;;;5017366;28;88434;-65
2022/05/05 05:55:54;;;;;;;14.03;8.03;;;23.00;44.00;;;;;;5016515;28;88446;-72
2022/05/05 05:58:24;;;;;;;17.90;8.10;;;23.00;44.10;;;;;;5008471;28;90457;-73
2022/05/05 06:00:52;;;;;;;24.40;8.67;;;23.00;44.20;;;;;;5009089;28;89431;-71
2022/05/05 06:06:07;;;;;;;16.40;8.03;;;23.00;44.40;;;;;;4999239;28;88651;-72
2022/05/05 06:08:35;;;;;;;18.67;8.60;;;23.00;44.50;;;;;;5008831;28;90091;-72
2022/05/05 06:11:03;;;;;;;20.83;8.60;;;23.00;44.60;;;;;;5018626;28;91080;-72
2022/05/05 06:13:33;;;;;;;16.83;8.73;;;23.00;44.70;;;;;;5018790;28;89824;-72
2022/05/05 06:16:01;;;;;;;15.30;8.43;;;23.00;44.70;;;;;;5019449;28;88572;-64
2022/05/05 06:18:30;;;;;;;13.97;7.83;;;23.00;44.80;;;;;;5019240;28;90086;-64
2022/05/05 06:20:58;;;;;;;14.13;7.60;;;23.00;44.80;;;;;;5019350;28;93174;-65
2022/05/05 06:23:26;;;;;;;14.30;6.97;;;23.00;44.80;;;;;;5019042;28;88905;-64
2022/05/05 06:25:54;;;;;;;13.53;6.77;;;23.10;44.90;;;;;;5019625;28;88136;-64
2022/05/05 06:28:22;;;;;;;12.57;6.33;;;23.00;44.80;;;;;;5014064;27;90818;-65
2022/05/05 06:30:52;;;;;;;12.30;7.37;;;23.00;44.90;;;;;;5014904;28;93281;-64
2022/05/05 06:33:20;;;;;;;16.17;7.77;;;23.10;45.00;;;;;;4998807;28;91988;-64
2022/05/05 06:35:48;;;;;;;13.03;7.10;;;23.00;44.80;;;;;;4998871;28;88529;-65
2022/05/05 06:38:16;;;;;;;11.67;6.70;;;23.10;45.00;;;;;;4999791;28;89005;-64
2022/05/05 06:40:45;;;;;;;11.60;7.10;;;23.00;44.90;;;;;;4999355;28;93046;-64
2022/05/05 06:43:13;;;;;;;13.77;7.67;;;23.00;44.80;;;;;;5000977;28;88595;-65
2022/05/05 06:45:41;;;;;;;12.63;6.97;;;23.00;44.80;;;;;;5010137;28;88729;-65
2022/05/05 06:48:11;;;;;;;14.47;6.63;;;23.00;44.80;;;;;;5022008;28;91108;-64
2022/05/05 06:50:39;;;;;;;13.60;7.00;;;23.00;44.80;;;;;;5021841;28;89199;-64
2022/05/05 06:53:07;;;;;;;12.10;6.77;;;23.00;44.70;;;;;;5005345;28;89869;-64
2022/05/05 06:55:35;;;;;;;11.40;6.27;;;23.00;44.70;;;;;;5001963;28;88485;-65
2022/05/05 06:58:03;;;;;;;9.70;5.83;;;23.00;44.80;;;;;;5001258;28;89929;-65
2022/05/05 07:03:14;;;;;;;9.27;5.60;;;23.00;44.70;;;;;;5001791;28;89370;-64
2022/05/05 07:05:41;;;;;;;9.63;5.63;;;23.00;44.60;;;;;;5001989;28;88471;-64
2022/05/05 07:08:09;;;;;;;10.33;6.07;;;23.00;44.60;;;;;;5002636;28;92564;-64
2022/05/05 07:10:55;;;;;;;16.23;6.67;;;23.00;44.60;;;;;;5001549;28;89051;-64
2022/05/05 07:13:23;;;;;;;12.70;6.27;;;23.00;44.60;;;;;;5001939;28;88555;-64
2022/05/05 07:15:51;;;;;;;12.63;5.70;;;23.00;44.60;;;;;;5001683;28;88447;-64
2022/05/05 07:18:21;;;;;;;11.57;5.40;;;23.00;44.60;;;;;;5001216;28;89917;-64
2022/05/05 07:20:50;;;;;;;10.40;5.53;;;22.90;44.40;;;;;;5000826;28;90038;-64
2022/05/05 07:23:18;;;;;;;10.50;5.67;;;22.90;45.00;;;;;;5007071;28;88958;-65
2022/05/05 07:25:46;;;;;;;7.13;4.63;;;22.90;44.40;;;;;;5006180;28;88507;-64
2022/05/05 07:28:15;;;;;;;15.23;5.23;;;22.90;44.40;;;;;;5001987;28;90736;-64
2022/05/05 07:30:44;;;;;;;17.87;5.37;;;22.90;44.30;;;;;;5001576;28;89018;-64
2022/05/05 07:33:12;;;;;;;12.87;6.03;;;22.90;44.30;;;;;;5001104;28;88431;-65
2022/05/05 07:35:42;;;;;;;8.40;5.23;;;22.90;44.30;;;;;;5001588;28;88435;-65
2022/05/05 07:38:10;;;;;;;9.43;4.83;;;22.90;44.30;;;;;;5001038;28;89434;-64
2022/05/05 07:40:38;;;;;;;9.30;5.40;;;23.00;44.30;;;;;;5001561;28;90048;-64
2022/05/05 07:43:07;;;;;;;8.07;4.73;;;23.00;44.30;;;;;;5001624;28;88245;-65
2022/05/05 07:45:35;;;;;;;7.37;4.57;;;23.00;44.20;;;;;;5001020;28;88551;-65
2022/05/05 07:48:03;;;;;;;8.70;4.73;;;23.00;44.20;;;;;;5001117;28;89934;-64
2022/05/05 07:50:31;;;;;;;7.97;4.60;;;23.00;44.20;;;;;;5000560;28;89232;-65
2022/05/05 07:53:00;;;;;;;8.50;4.60;;;23.00;44.10;;;;;;5000751;28;89537;-65
2022/05/05 07:55:28;;;;;;;7.83;5.03;;;23.00;44.10;;;;;;5001149;28;88372;-65
2022/05/05 07:57:57;;;;;;;7.57;4.97;;;23.00;44.10;;;;;;5004344;28;90640;-65
2022/05/05 08:00:25;;;;;;;7.47;4.87;;;23.00;44.10;;;;;;5020415;28;88856;-64
2022/05/05 08:02:53;;;;;;;9.77;5.10;;;23.00;44.10;;;;;;5020363;28;88835;-64
2022/05/05 08:05:21;;;;;;;8.03;5.03;;;23.00;44.10;;;;;;5020731;28;88631;-65
2022/05/05 08:07:49;;;;;;;9.73;5.60;;;23.00;44.00;;;;;;5020378;28;89689;-64
2022/05/05 08:10:19;;;;;;;7.10;4.40;;;23.00;44.70;;;;;;5020124;28;89175;-65
2022/05/05 08:12:48;;;;;;;9.47;5.13;;;23.00;44.00;;;;;;5021006;28;88853;-64
2022/05/05 08:15:17;;;;;;;8.00;4.57;;;23.00;44.00;;;;;;5008031;28;88628;-65
2022/05/05 08:17:45;;;;;;;7.50;4.33;;;23.00;44.00;;;;;;5006368;28;90687;-65
2022/05/05 08:20:14;;;;;;;5.70;3.97;;;23.00;44.00;;;;;;5020846;28;89970;-65
2022/05/05 08:22:42;;;;;;;6.63;4.30;;;23.00;43.90;;;;;;5020120;28;88605;-64
2022/05/05 08:30:43;;;;;;;7.17;4.10;;;23.00;43.90;;;;;;5000454;28;88868;-65
2022/05/05 08:33:11;;;;;;;7.47;4.17;;;23.00;43.80;;;;;;5000754;28;88767;-64
2022/05/05 08:35:41;;;;;;;6.83;4.20;;;23.00;43.80;;;;;;5000102;28;88971;-65
2022/05/05 08:38:09;;;;;;;8.00;4.43;;;23.00;43.80;;;;;;5000344;28;90807;-64
2022/05/05 08:40:40;;;;;;;7.53;4.20;;;23.10;43.80;;;;;;5000565;28;89406;-64
2022/05/05 08:43:09;;;;;;;8.53;4.53;;;23.10;43.80;;;;;;5000200;28;89137;-64
2022/05/05 08:45:38;;;;;;;7.33;4.23;;;23.10;43.80;;;;;;5001548;28;88406;-64
2022/05/05 08:48:07;;;;;;;6.80;4.53;;;23.10;43.80;;;;;;5000156;28;90824;-65
2022/05/05 08:50:36;;;;;;;5.50;3.87;;;23.10;43.80;;;;;;4999252;28;89030;-65
2022/05/05 08:53:05;;;;;;;6.50;3.47;;;23.10;43.70;;;;;;5000550;28;89111;-65
2022/05/05 08:55:34;;;;;;;7.23;4.10;;;23.10;43.70;;;;;;5000773;28;88500;-64
2022/05/05 08:58:02;;;;;;;6.20;3.43;;;23.10;43.70;;;;;;5000659;28;89508;-64
2022/05/05 09:00:31;;;;;;;5.37;3.80;;;23.20;43.80;;;;;;5001348;28;90128;-65
2022/05/05 09:03:00;;;;;;;6.13;3.60;;;23.20;43.70;;;;;;5000672;28;88432;-64
2022/05/05 09:05:49;;;;;;;6.20;3.90;;;23.20;43.70;;;;;;5000020;28;88515;-64
2022/05/05 09:08:32;;;;;;;5.47;3.43;;;23.20;43.70;;;;;;4998413;28;90650;-65
2022/05/05 09:11:02;;;;;;;6.50;4.30;;;23.20;43.70;;;;;;4999715;28;90164;-65
2022/05/05 09:13:31;;;;;;;8.20;4.03;;;23.20;43.60;;;;;;5000894;28;89281;-64
2022/05/05 09:16:02;;;;;;;6.17;3.63;;;23.20;43.70;;;;;;5019547;28;88402;-64
2022/05/05 09:18:31;;;;;;;4.67;3.30;;;23.20;43.70;;;;;;5019821;28;92254;-64
2022/05/05 09:21:01;;;;;;;6.20;3.97;;;23.30;43.70;;;;;;5020229;28;89599;-65
2022/05/05 09:23:31;;;;;;;4.93;3.67;;;23.20;43.70;;;;;;5019610;28;89161;-65
2022/05/05 09:25:59;;;;;;;5.77;4.13;;;23.20;43.60;;;;;;5019395;28;88607;-65
2022/05/05 09:28:30;;;;;;;5.13;3.53;;;23.20;43.60;;;;;;5020139;28;89469;-65
2022/05/05 09:31:05;;;;;;;6.60;3.73;;;23.20;43.60;;;;;;5018355;28;90075;-65
2022/05/05 09:33:38;;;;;;;10.00;4.43;;;23.20;43.60;;;;;;5020707;28;88429;-66
2022/05/05 09:36:07;;;;;;;8.73;4.67;;;23.20;43.60;;;;;;5020229;28;88521;-65
2022/05/05 09:38:51;;;;;;;6.43;4.00;;;23.20;43.60;;;;;;5019984;28;90580;-64
2022/05/05 09:41:19;;;;;;;9.87;4.50;;;23.20;43.60;;;;;;5017908;28;89195;-64
2022/05/05 09:43:47;;;;;;;5.67;3.63;;;23.30;43.60;;;;;;5019702;28;89418;-65
2022/05/05 09:46:34;;;;;;;6.90;4.33;;;23.30;43.60;;;;;;5019964;28;88425;-65
2022/05/05 09:49:11;;;;;;;6.97;4.37;;;23.30;43.70;;;;;;5017826;28;90544;-65
2022/05/05 09:51:41;;;;;;;7.23;3.80;;;23.30;43.60;;;;;;5019250;28;88636;-64
2022/05/05 09:59:47;;;;;;;5.50;3.37;;;23.30;43.60;;;;;;5019335;28;89711;-65
2022/05/05 10:04:00;;;;;;;7.10;4.30;;;23.30;43.60;;;;;;5019607;28;89957;-64
2022/05/05 10:05:09;;;;;;;3.43;2.90;;;23.30;43.60;;;;;;5005480;28;88305;-64
2022/05/05 10:07:39;;;;;;;7.63;3.80;;;23.30;43.60;;;;;;4999129;28;88670;-64
2022/05/05 10:10:08;;;;;;;4.87;3.67;;;23.30;43.60;;;;;;4999330;28;92421;-64
2022/05/05 10:12:36;;;;;;;8.17;4.37;;;23.30;43.60;;;;;;4998820;28;89517;-65
2022/05/05 10:15:05;;;;;;;7.33;4.20;;;23.30;43.60;;;;;;4999269;28;89371;-65
2022/05/05 10:17:36;;;;;;;5.80;3.80;;;23.40;43.70;;;;;;5001072;28;88454;-65
2022/05/05 10:20:05;;;;;;;7.47;3.93;;;23.40;43.70;;;;;;5002363;28;90354;-65
2022/05/05 10:26:24;;;;;;;7.37;3.80;;;23.40;43.70;;;;;;5020685;28;88509;-64
2022/05/05 10:29:39;;;;;;;4.77;3.23;;;23.40;43.60;;;;;;5021911;28;88238;-64
2022/05/05 10:32:10;;;;;;;7.23;3.77;;;23.30;43.60;;;;;;5022235;28;92380;-65
2022/05/05 10:34:39;;;;;;;5.37;3.57;;;23.40;43.70;;;;;;5021991;28;90214;-65
2022/05/05 10:37:11;;;;;;;5.60;3.20;;;23.40;43.70;;;;;;5021824;28;89191;-65
2022/05/05 10:39:46;;;;;;;4.73;2.90;;;23.40;43.70;;;;;;5022762;28;88615;-65
2022/05/05 10:42:16;;;;;;;5.70;3.40;;;23.40;44.30;;;;;;5022887;28;88244;-65
2022/05/05 10:45:04;;;;;;;4.73;3.57;;;23.40;43.70;;;;;;5022377;28;89404;-65
2022/05/05 10:48:14;;;;;;;6.13;3.30;;;23.40;43.70;;;;;;5021749;28;89121;-65
2022/05/05 10:50:56;;;;;;;4.83;3.10;;;23.50;43.70;;;;;;5022613;28;88517;-66
2022/05/05 10:53:33;;;;;;;6.70;3.37;;;23.50;43.60;;;;;;5022134;27;89992;-65
2022/05/05 10:56:02;;;;;;;4.53;3.33;;;23.50;43.70;;;;;;5020802;28;89211;-65
2022/05/05 10:58:55;;;;;;;6.30;3.70;;;23.50;43.70;;;;;;5023147;28;88440;-65
2022/05/05 11:01:23;;;;;;;5.77;3.33;;;23.50;43.70;;;;;;5022269;28;88552;-64
2022/05/05 11:04:28;;;;;;;5.00;3.37;;;23.50;43.60;;;;;;5022146;28;88672;-65
2022/05/05 11:07:36;;;;;;;3.73;3.00;;;23.50;43.70;;;;;;5022626;28;88888;-65
2022/05/05 11:10:09;;;;;;;6.17;3.00;;;23.50;43.70;;;;;;5021596;28;88310;-65
2022/05/05 11:12:37;;;;;;;5.67;3.30;;;23.50;43.60;;;;;;5004006;28;88587;-65
2022/05/05 11:23:29;;;;;;;4.73;3.47;;;23.60;43.80;;;;;;5001366;28;88527;-64
2022/05/05 11:26:00;;;;;;;4.50;3.47;;;23.60;43.80;;;;;;5001094;28;90963;-65
2022/05/05 11:28:31;;;;;;;3.93;2.70;;;23.60;43.80;;;;;;5000896;28;89052;-65
2022/05/05 11:31:00;;;;;;;4.47;2.83;;;23.60;43.80;;;;;;5000650;28;90215;-65
2022/05/05 11:33:28;;;;;;;3.40;2.83;;;23.60;43.80;;;;;;5001175;28;89429;-65
2022/05/05 11:36:00;;;;;;;5.17;3.10;;;23.60;43.80;;;;;;5000980;28;90726;-65
2022/05/05 11:38:30;;;;;;;6.93;3.60;;;23.60;43.80;;;;;;5004112;28;89985;-65
2022/05/05 11:41:04;;;;;;;5.20;3.57;;;23.60;43.80;;;;;;5020305;28;89272;-65
2022/05/05 11:46:18;;;;;;;5.27;2.90;;;23.60;43.80;;;;;;5021175;28;89464;-65
2022/05/05 11:48:53;;;;;;;3.77;2.70;;;23.60;43.80;;;;;;5021308;28;90214;-65
2022/05/05 11:51:24;;;;;;;5.67;3.53;;;23.60;43.80;;;;;;5020666;28;89032;-65
2022/05/05 11:54:04;;;;;;;5.03;3.07;;;23.60;43.80;;;;;;5007147;28;88435;-65
2022/05/05 11:56:33;;;;;;;4.60;3.43;;;23.60;43.80;;;;;;5001019;28;93575;-65
2022/05/05 12:02:01;;;;;;;4.43;3.43;;;23.60;43.90;;;;;;5001103;28;88298;-65
2022/05/05 12:04:30;;;;;;;3.83;2.47;;;23.60;43.80;;;;;;5001070;28;88488;-65
2022/05/05 12:06:59;;;;;;;6.80;3.00;;;23.60;43.90;;;;;;5000928;28;91026;-65
2022/05/05 12:09:27;;;;;;;5.70;3.03;;;23.60;43.90;;;;;;5001590;28;90094;-65
2022/05/05 12:12:12;;;;;;;7.90;3.57;;;23.60;43.90;;;;;;5000688;28;88409;-65
2022/05/05 12:14:41;;;;;;;3.70;3.07;;;23.60;43.90;;;;;;5000333;28;88694;-65
2022/05/05 12:17:12;;;;;;;9.80;4.57;;;23.60;43.90;;;;;;5000585;28;90644;-65
2022/05/05 12:19:50;;;;;;;8.03;3.70;;;23.60;43.90;;;;;;5000184;28;88901;-65
2022/05/05 12:22:22;;;;;;;5.73;3.43;;;23.60;43.90;;;;;;5000658;28;89756;-65
2022/05/05 12:24:50;;;;;;;6.13;3.57;;;23.60;43.90;;;;;;5000912;28;88503;-65
2022/05/05 12:27:23;;;;;;;4.60;3.37;;;23.60;43.90;;;;;;5000027;28;89632;-65
2022/05/05 12:29:51;;;;;;;6.30;4.00;;;23.60;43.90;;;;;;5000229;28;89543;-65
2022/05/05 12:32:20;;;;;;;6.50;3.83;;;23.60;43.90;;;;;;5008958;28;88433;-65
2022/05/05 12:34:48;;;;;;;6.77;4.43;;;23.60;43.90;;;;;;5020009;28;88694;-65
2022/05/05 12:37:17;;;;;;;5.87;4.27;;;23.70;43.90;;;;;;5019529;28;90008;-65
2022/05/05 12:39:58;;;;;;;6.20;4.37;;;23.70;43.90;;;;;;5018108;28;93136;-65
2022/05/05 12:42:39;;;;;;;8.70;4.50;;;23.60;43.90;;;;;;5020506;28;88701;-65
2022/05/05 12:45:10;;;;;;;7.17;4.53;;;23.60;43.90;;;;;;5020336;28;88667;-65
2022/05/05 12:47:40;;;;;;;7.60;4.67;;;23.70;43.90;;;;;;5019884;28;90640;-65
2022/05/05 12:50:26;;;;;;;8.33;4.93;;;23.70;44.00;;;;;;5019638;28;89489;-65
2022/05/05 13:01:20;;;;;;;10.67;4.83;;;23.70;43.90;;;;;;5000435;28;88359;-65
2022/05/05 13:03:49;;;;;;;10.43;5.47;;;23.60;43.90;;;;;;5000393;28;89416;-65
2022/05/05 13:06:17;;;;;;;10.43;5.57;;;23.60;43.90;;;;;;5000279;28;88598;-65
2022/05/05 13:08:50;;;;;;;11.87;6.20;;;23.70;43.90;;;;;;5000486;28;90134;-65
2022/05/05 13:11:19;;;;;;;13.37;6.73;;;23.70;43.90;;;;;;5009953;28;90069;-65
2022/05/05 13:13:49;;;;;;;11.13;6.83;;;23.70;43.90;;;;;;5019869;28;89452;-65
2022/05/05 13:16:24;;;;;;;9.70;5.80;;;23.70;43.90;;;;;;5019789;28;88234;-65
2022/05/05 13:18:52;;;;;;;10.83;6.03;;;23.70;43.90;;;;;;5019053;28;89520;-65
2022/05/05 13:21:20;;;;;;;9.93;6.00;;;23.70;43.90;;;;;;5019716;28;88907;-65
2022/05/05 13:23:48;;;;;;;11.90;6.17;;;23.70;43.90;;;;;;5020355;28;88394;-65
2022/05/05 13:26:16;;;;;;;11.00;6.60;;;23.70;43.90;;;;;;5019933;28;88500;-66
2022/05/05 13:28:44;;;;;;;13.90;6.53;;;23.70;43.90;;;;;;5019452;28;90694;-65
2022/05/05 13:31:14;;;;;;;10.73;5.93;;;23.70;43.90;;;;;;5019258;28;90080;-66
2022/05/05 13:33:42;;;;;;;12.07;6.20;;;23.80;44.00;;;;;;5019144;28;88296;-65
2022/05/05 13:36:10;;;;;;;14.13;6.23;;;23.80;43.90;;;;;;5019184;28;88616;-65
2022/05/05 13:38:38;;;;;;;10.77;6.70;;;23.80;44.00;;;;;;5019161;28;92202;-65
2022/05/05 13:41:26;;;;;;;12.83;6.43;;;23.80;43.90;;;;;;5019438;28;90499;-65
2022/05/05 13:43:54;;;;;;;14.03;7.07;;;23.80;43.90;;;;;;5017466;28;89573;-65
2022/05/05 13:46:24;;;;;;;13.47;6.77;;;23.80;43.90;;;;;;5018889;28;88606;-66
2022/05/05 13:48:52;;;;;;;11.23;5.57;;;23.80;43.90;;;;;;5010624;28;88585;-65
2022/05/05 13:51:20;;;;;;;15.20;6.93;;;23.80;43.90;;;;;;4999490;28;90079;-65
2022/05/05 13:53:48;;;;;;;11.43;6.30;;;23.80;43.90;;;;;;5003430;28;91189;-65